AirNav   Phillips 66 Aviation Fuel
 
 562 users online  

KVNW Van Wert County Airport
Van Wert, Ohio, USA

GOING TO VAN WERT?


FAA INFORMATION EFFECTIVE 01 FEBRUARY 2018

Location

FAA Identifier: VNW
Lat/Long: 40-51-49.7861N / 084-36-22.8888W
40-51.829768N / 084-36.381480W
40.8638295 / -84.6063580
(estimated)
Elevation: 787.1 ft. / 239.9 m (surveyed)
Variation: 05W (2000)
From city: 2 miles SW of VAN WERT, OH
Time zone: UTC -5 (UTC -4 during Daylight Saving Time)
Zip code: 45891

Airport Operations

Airport use: Open to the public
Control tower: no
ARTCC: CHICAGO CENTER
FSS: DAYTON FLIGHT SERVICE STATION
NOTAMs facility: DAY (NOTAM-D service available)
Attendance: MON-FRI 07:00-16:00, ALL SAT-SUN PRIOR ARRANGEMENT
Pattern altitude: 1599.1 ft. MSL
Wind indicator: lighted
Segmented circle: no
Lights: ACTVT MIRL RY 09/27, REIL RYS 09 & 27 AND PAPI RYS 09 & 27 - CTAF.
Beacon: white-green (lighted land airport)
Operates sunset to sunrise.
Taxiway lights: TAXIWAY LGTS AT ENTRANCE TO RWY.

Airport Communications

CTAF/UNICOM: 123.0
WX AWOS-3: 125.175 (419-232-2967)
FORT WAYNE APPROACH: 127.2(SW/NW OF ACTIVE RWY) 132.15(SE/NE OF ACTIVE RWY)
FORT WAYNE DEPARTURE: 127.2(SW/NW OF ACTIVE RWY) 132.15(SE/NE OF ACTIVE RWY)
IC: 127.2(SW/NW OF ACTIVE RWY)
  • APCH CTL SECTORIZATION BASED UPON FORT WAYNE RWY USAGE.

Nearby radio navigation aids

VOR radial/distance  VOR name  Freq  Var
FWAr111/27.3FORT WAYNE VORTAC117.8006W
FBCr264/38.9FLAG CITY VORTAC108.2002W

 
NDB name  Hdg/Dist  Freq  Var  ID
HUNTINGTON092/38.941703WHHG .... .... --.

Airport Services

Fuel available: 100LL JET-A JET-A+
Parking: hangars and tiedowns
Airframe service: NONE
Powerplant service: NONE
Bottled oxygen: NONE
Bulk oxygen: NONE

Runway Information

Runway 9/27

Dimensions: 4000 x 75 ft. / 1219 x 23 m
Surface: asphalt, in good condition
Weight bearing capacity: 
Single wheel: 8.0
Runway edge lights: medium intensity
RUNWAY 9  RUNWAY 27
Latitude: 40-51.880430N40-51.885335N
Longitude: 084-37.001147W084-36.133452W
Elevation: 783.3 ft.785.0 ft.
Gradient: 0.1%0.1%
Traffic pattern: leftleft
Runway heading: 095 magnetic, 090 true275 magnetic, 270 true
Markings: nonprecision, in good conditionnonprecision, in good condition
Visual slope indicator: 4-light PAPI on left (3.00 degrees glide path)4-light PAPI on left (3.50 degrees glide path)
Runway end identifier lights: yesyes
Touchdown point: yes, no lightsyes, no lights
Obstructions: 5 ft. pline, 201 ft. from runway, 150 ft. left of centerline
RWY 09, 0:1 APRCH RATIO TO THLD RWY 09, DUE TO BERM/MOUND 200FT FM RWY 09 150 L
3 ft. crops, 220 ft. from runway, 240 ft. left of centerline, 6:1 slope to clear
RWY 27, 0:1 APRCH RATIO TO THLD RWY 27, DUE TO +3FT CROPS 136FT FM & EXTENDING TO THLD RWY 27, 240FT L

Runway 18/36

Dimensions: 2558 x 95 ft. / 780 x 29 m
Surface: turf, in good condition
RUNWAY 18  RUNWAY 36
Latitude: 40-51.957295N40-51.536130N
Longitude: 084-36.093500W084-36.088322W
Elevation: 781.6 ft.785.8 ft.
Gradient: 0.2%0.2%
Traffic pattern: leftleft
Runway heading: 184 magnetic, 179 true004 magnetic, 359 true
Displaced threshold: 301 ft.498 ft.
Touchdown point: yes, no lightsyes, no lights
Obstructions: 60 ft. tree, 215 ft. from runway, 25 ft. left of centerline, 3:1 slope to clear
RWY 18, 8:1 APCH RATIO TO DSPLD THLD RWY 18, DUE TO +60FT TREE 515FT FM DSPLD THLD RWY 18 25FT L
55 ft. tree, 90 ft. from runway, 40 ft. right of centerline, 1:1 slope to clear
RWY 36, 10:1 APCH RATIO TO DSPLCD THLD RWY 36 DUE TO +55FT TREE 590FT FROM DSPLCD THLD RWY 36 40FT R.

Airport Ownership and Management from official FAA records

Ownership: Publicly-owned
Owner: VAN WERT CO. REGIONAL AIRPORT AUTH.
1400 LEESON AVE
VAN WERT, OH 45891
Phone 419-232-4500
Manager: STEVE BAILEY
1400 LEESON AVE
VAN WERT, OH 45891
Phone 419-232-4500
ADNL CTC: MANAGER@VANWERTCOUNTYAIRPORT.ORG

Airport Operational Statistics

Aircraft based on the field: 23
Single engine airplanes: 21
Ultralights: 2
  • ULTRALIGHTS OPER EVNGS, WKENDS & IN NO-WIND CONDS.
    
Aircraft operations: avg 75/day *
73% local general aviation
27% transient general aviation
* for 12-month period ending 21 July 2017

Additional Remarks

RWY 36 ADNL OBST INCLUDE ROAD, TREES & BUILDINGS

Instrument Procedures

NOTE: All procedures below are presented as PDF files. If you need a reader for these files, you should download the free Adobe Reader.

NOT FOR NAVIGATION. Please procure official charts for flight.
FAA instrument procedures published for use between 1 February 2018 at 0901Z and 1 March 2018 at 0900Z.

 
IAPs - Instrument Approach Procedures
RNAV (GPS) RWY 09   download (195KB)
RNAV (GPS) RWY 27   download (194KB)
NOTE: Special Alternate Minimums apply   download (37KB)
NOTE: Special Take-Off Minimums/Departure Procedures apply   download (164KB)

Other nearby airports with instrument procedures:

KCQA - Lakefield Airport (23 nm S)
KAXV - Neil Armstrong Airport (26 nm SE)
KFWA - Fort Wayne International Airport (28 nm W)
KAOH - Lima Allen County Airport (28 nm E)
KDFI - Defiance Memorial Airport (30 nm N)
 
Loc | Ops | Rwys | IFR | FBO | Links
Com | Nav | Svcs | Stats | Notes

AirNav Hotels Sweepstakes
 
Area around KVNW (Van Wert County Airport)
 
Road maps at: MapQuest Bing Google
 
Aerial photo
WARNING: Photo may not be current or correct
Aerial photo of KVNW (Van Wert County Airport)
Photo taken 24-Jul-2006
from a Cessna 340 at 12000 ft MSL

Do you have a better or more recent aerial photo of Van Wert County Airport that you would like to share? If so, please send us your photo.

 
Sectional chart

 
Airport distance calculator
Flying to Van Wert County Airport? Find the distance to fly.

From to KVNW

Sunrise and sunset
Times for 24-Feb-2018
 Local
(UTC-5)
 Zulu
(UTC)
Morning civil twilight06:5311:53
Sunrise07:2112:21
Sunset18:2223:22
Evening civil twilight18:5023:50

Current date and time
Zulu (UTC)  24-Feb-2018 06:01:42
Local (UTC-5)  24-Feb-2018 01:01:42
 
METAR
KAXV 
26nm SE 
240555Z AUTO 34007KT 10SM OVC007 07/07 A3020 RMK AO2
KFWA 
28nm W 
240554Z 33010KT 9SM OVC008 06/04 A3023 RMK AO2 SLP240 T00560039 10078 20056 55007 $
KAOH 
29nm E 
240553Z AUTO 33008KT 10SM OVC008 06/06 A3020 RMK AO2 SLP229 T00610056 10100 20061 58005
KDFI 
29nm N 
240553Z AUTO 33009KT 10SM OVC010 05/03 A3023 RMK AO2 SLP240 T00500028 10083 20050 58001
KOWX 
30nm E 
240555Z AUTO 31004KT 7SM OVC009 05/04 A3023 RMK AO1
KGWB 
34nm NW 
240555Z AUTO 33011KT 5SM BR OVC008 03/03 A3023 RMK AO2
KHHG 
39nm W 
240555Z AUTO 32005KT 7SM OVC005 04/04 A3022 RMK AO2 T00420035 10070 20041 TSNO
KVES 
40nm S 
240530Z AUTO 35005KT 5SM BR OVC003 06/06 A3020 RMK AO2
KFDY 
44nm E 
240553Z AUTO 30009KT 10SM OVC012 08/04 A3020 RMK AO2 SLP223 T00780044 10106 20078 58005
TAF
KFWA 
28nm W 
240540Z 2406/2506 33005KT P6SM OVC007 FM241100 06006KT 6SM -RA OVC007 FM241800 08010KT 5SM -RA OVC008 FM250000 10011G17KT 3SM RA OVC004 FM250300 11012G18KT 1 1/2SM RA BR OVC003
NOTAMs
Click for the latest NOTAMs
NOTAMs are issued by the DoD/FAA and will open in a separate window not controlled by AirNav.

 

 
 

FBO, Fuel Providers, and Aircraft Ground Support

  
 Business Name 
 
 Contact 
 
 Services / Description 
 
Fuel Prices
 
Comments
  
Van Wert County Airport 419-232-4500
no information available

If you are affiliated with Van Wert County Airport and would like to show here your services, contact info, web link, logo, and more, click here
100LL Jet A
AS $4.69 $3.79 
 Updated 19-Feb-2018
 
   2 read write
AS=Assisted/Self Service
Update Fuel Prices
 

Would you like to see your business listed on this page?

 If your business provides an interesting product or service to pilots, flight crews, aircraft, or users of the Van Wert County Airport, you should consider listing it here.  To start the listing process, click on the button below
 
Add a business
 

Other Pages about Van Wert County Airport

Update a link
 
Copyright © AirNav, LLC. All rights reserved. Privacy Policy  Contact